LESO/EAS METAR and TAF weather

Enter ICAO airport designator
Station Type Date Time Source
LESO METAR 2020/12/06 02:00 UTC NOAA

LESO 060200Z AUTO 23010KT 190V260 7000 RA FEW027 BKN033 OVC046 07/05 Q1003


Station Type Date Time Source
LESO Decoded METAR 2020/12/06 02:00 UTC NOAA

San Sebastian / Fuenterrabia, Spain (LESO) 43-21N 001-48W 8M
Dec 05, 2020 - 09:00 PM EST / 2020.12.06 0200 UTC
Wind: from the SW (230 degrees) at 12 MPH (10 KT) (direction variable):0
Visibility: 4 mile(s):0
Sky conditions: overcast
Weather: rain
Temperature: 44 F (7 C)
Dew Point: 41 F (5 C)
Relative Humidity: 87%
Pressure (altimeter): 29.62 in. Hg (1003 hPa)
ob: LESO 060200Z AUTO 23010KT 190V260 7000 RA FEW027 BKN033 OVC046 07/05 Q1003
cycle: 2

Station Type Date Time Source
LESO TAF 2020/12/05 18:27 UTC NOAA

TAF TAF LESO 051700Z 0518/0618 24015KT 9000 SCT020 BKN035 TX12/0613Z TN06/0603Z
TEMPO 0518/0618 26016G28KT 3000 RA SHRA BKN010 BKN030TCU PROB40
TEMPO 0518/0618 TSRA BKN030CB PROB40
TEMPO 0518/0610 28020G38KT 1500 +SHRAGS BKN025CB

Example: see airport list